Donnelly, ID (83615)

10:23 AM MDT on June 02, 2015 (GMT -0600)
Cascade Lake | | Change Station
CLOSE
Current Station
Personal Weather Station
Location: Donnelly, ID
Elevation: 4820 ft
Nearby Weather Stations

Elev 4820 ft 44.71 °N, 116.10 °W | Updated 22 seconds ago

Overcast
Overcast
52.2 °F
Feels Like 52.2 °F
N
3.6
Wind Variable Wind from SW
Gusts 4.9 mph

Today
High -- | Low -- °F
--% Chance of Precip.
Yesterday
High -- | Low -- °F
Precip. -- in
6:01 AM 9:23 PM
Full, 100% visible
Pressure 29.94 in
Visibility 10.0 miles
Clouds Few 4100 ft
Overcast 5500 ft
Dew Point 49 °F
Humidity 90%
Rainfall 0.07 in
Snow Depth Not available.
UV 2.0 out of 12
Pollen 5.90 out of 12
Air Quality Not available.
Flu Activity No Activity
METAR KMYL 021551Z AUTO 19011KT 10SM FEW041 OVC055 11/07 A3001 RMK AO2 RAB15E41 SLP139 P0000 T01060067

More Conditions Fewer Conditions

Pressure 29.94 in
Visibility 10.0 miles
Clouds Few 4100 ft
Overcast 5500 ft
Dew Point 49 °F
Humidity 90%
Rainfall 0.07 in
Snow Depth Not available.
UV 2.0 out of 12
Pollen 5.90 out of 12
Air Quality Not available.
Flu Activity No Activity
METAR KMYL 021551Z AUTO 19011KT 10SM FEW041 OVC055 11/07 A3001 RMK AO2 RAB15E41 SLP139 P0000 T01060067

More Conditions Fewer Conditions

10-Day Weather Forecast

Almanac

Astronomy

Jun. 02, 2015 Rise Set
Actual Time
Civil Twilight
Nautical Twilight
Astronomical Twilight
Moon
Length of Visible Light
Length of Day
Tomorrow will be .
, % of the Moon is Illuminated

Today's Extremes

State Highs State Lows

Community

WunderPhotos

Upload Photos

1,825,974 photos uploaded!

WunderBlogs® & News

Nearby

Air Quality

  Air Quality AQ Index Pollutant
Not available.

Snow Depth

Station Depth Elevation

Earthquake Activity

City Distance Mag. Time & Date
Minimum magnitude displayed is 2.5.

Coastal Water Temperatures

Place Temperature

Stations

Nearby Weather Stations

Station Location Temp. Windchill Dew Point Humidity Wind Precip. Elev Updated Type